createdAt,value
2023-07-02T00:17:40.353Z,94591.00
2023-07-02T00:18:27.693Z,94588.00
2023-07-02T00:19:27.896Z,94589.00
2023-07-02T00:20:27.983Z,94591.00
2023-07-02T00:21:28.195Z,94591.00
2023-07-02T00:25:36.157Z,94593.00
2023-07-02T00:26:36.182Z,94595.00
2023-07-02T00:27:35.557Z,94595.00
2023-07-02T00:28:35.470Z,94595.00
2023-07-02T00:29:35.451Z,94595.00
2023-07-02T00:30:35.421Z,94595.00
2023-07-02T00:31:35.418Z,94597.00
2023-07-02T00:32:36.156Z,94595.00
2023-07-02T00:33:35.412Z,94595.00
2023-07-02T00:34:35.408Z,94597.00
2023-07-02T00:35:35.691Z,94595.00
2023-07-02T00:36:35.383Z,94597.00
2023-07-02T00:37:35.323Z,94597.00
2023-07-02T00:38:35.434Z,94599.00
2023-07-02T00:39:35.362Z,94599.00
2023-07-02T00:40:35.358Z,94603.00
2023-07-02T00:41:35.770Z,94601.00
2023-07-02T00:43:55.092Z,94599.00
2023-07-02T00:44:55.248Z,94599.00
2023-07-02T01:04:49.090Z,94619.00
2023-07-02T01:32:23.502Z,94633.00
2023-07-02T01:33:23.078Z,94627.00
2023-07-02T01:34:23.036Z,94625.00
2023-07-02T01:35:23.439Z,94623.00
2023-07-02T01:36:23.044Z,94625.00
2023-07-02T01:37:23.002Z,94623.00
2023-07-02T01:38:22.949Z,94627.00
2023-07-02T01:39:22.941Z,94623.00
2023-07-02T01:40:23.666Z,94621.00
2023-07-02T01:41:23.000Z,94625.00
2023-07-02T01:42:22.985Z,94631.00
2023-07-02T01:43:22.970Z,94625.00
2023-07-02T01:44:22.984Z,94627.00
2023-07-02T01:45:23.627Z,94621.00
2023-07-02T01:46:23.014Z,94619.00
2023-07-02T01:47:23.003Z,94611.00
2023-07-02T01:48:22.912Z,94611.00
2023-07-02T01:49:22.928Z,94611.00
2023-07-02T01:50:23.028Z,94613.00
2023-07-02T01:51:22.935Z,94615.00
2023-07-02T01:52:22.910Z,94615.00
2023-07-02T01:53:22.952Z,94621.00
2023-07-02T01:54:23.370Z,94619.00
2023-07-02T01:55:22.858Z,94619.00
2023-07-02T01:56:22.862Z,94619.00
2023-07-02T01:57:22.928Z,94621.00
2023-07-02T01:58:22.871Z,94621.00
2023-07-02T01:59:22.838Z,94621.00
2023-07-02T02:00:22.899Z,94621.00
2023-07-02T02:01:22.879Z,94621.00
2023-07-02T02:02:23.801Z,94621.00
2023-07-02T02:03:22.918Z,94621.00
2023-07-02T02:04:22.872Z,94623.00
2023-07-02T02:05:22.835Z,94621.00
2023-07-02T02:06:22.842Z,94623.00
2023-07-02T02:07:22.746Z,94621.00
2023-07-02T02:08:22.760Z,94623.00
2023-07-02T02:09:22.777Z,94623.00
2023-07-02T02:10:22.768Z,94621.00
2023-07-02T02:11:23.278Z,94623.00
2023-07-02T02:12:22.770Z,94623.00
2023-07-02T02:13:22.800Z,94625.00
2023-07-02T02:14:22.777Z,94625.00
2023-07-02T02:15:22.704Z,94629.00
2023-07-02T02:16:23.013Z,94629.00
2023-07-02T02:17:22.862Z,94633.00
2023-07-02T02:18:22.703Z,94625.00
2023-07-02T02:19:22.831Z,94633.00
2023-07-02T02:20:22.708Z,94629.00
2023-07-02T02:21:22.709Z,94629.00
2023-07-02T02:22:22.758Z,94631.00
2023-07-02T02:23:22.739Z,94631.00
2023-07-02T02:24:22.746Z,94631.00
2023-07-02T02:25:22.669Z,94627.00
2023-07-02T02:26:22.683Z,94629.00
2023-07-02T02:27:22.673Z,94627.00
2023-07-02T02:28:22.682Z,94629.00
2023-07-02T02:29:22.712Z,94627.00
2023-07-02T02:30:22.709Z,94629.00
2023-07-02T02:31:22.747Z,94629.00
2023-07-02T02:32:22.660Z,94625.00
2023-07-02T02:33:22.620Z,94627.00
2023-07-02T02:34:22.625Z,94625.00
2023-07-02T02:35:22.658Z,94625.00
2023-07-02T02:36:23.840Z,94623.00
2023-07-02T02:37:22.609Z,94625.00
2023-07-02T02:38:22.626Z,94623.00
2023-07-02T02:39:22.568Z,94623.00
2023-07-02T02:40:22.564Z,94625.00
2023-07-02T02:41:22.572Z,94625.00
2023-07-02T02:42:22.575Z,94629.00
2023-07-02T02:43:22.593Z,94627.00
2023-07-02T02:44:22.510Z,94629.00
2023-07-02T02:45:22.562Z,94631.00
2023-07-02T02:46:22.666Z,94629.00
2023-07-02T02:47:22.738Z,94633.00
2023-07-02T02:48:22.705Z,94631.00
2023-07-02T02:49:22.819Z,94631.00
2023-07-02T02:50:22.825Z,94631.00
2023-07-02T02:51:22.912Z,94633.00
2023-07-02T02:52:22.921Z,94631.00
2023-07-02T02:53:23.649Z,94631.00
2023-07-02T02:54:23.059Z,94631.00
2023-07-02T02:55:23.175Z,94633.00
2023-07-02T02:56:23.194Z,94635.00
2023-07-02T02:57:23.173Z,94631.00
2023-07-02T02:58:23.218Z,94633.00
2023-07-02T02:59:23.306Z,94637.00
2023-07-02T03:00:23.347Z,94638.00
2023-07-02T03:01:23.423Z,94638.00
2023-07-02T03:02:23.593Z,94638.00
2023-07-02T03:03:24.310Z,94644.00
2023-07-02T03:04:23.576Z,94638.00
2023-07-02T03:05:23.529Z,94640.00
2023-07-02T03:06:23.530Z,94637.00
2023-07-02T03:07:23.659Z,94638.00
2023-07-02T03:08:23.602Z,94637.00
2023-07-02T03:09:23.632Z,94638.00
2023-07-02T03:10:23.866Z,94638.00
2023-07-02T03:11:23.725Z,94638.00
2023-07-02T03:12:25.940Z,94638.00
2023-07-02T03:13:23.731Z,94640.00
2023-07-02T03:32:31.864Z,94646.00
2023-07-02T03:33:35.388Z,94644.00
2023-07-02T03:34:35.308Z,94640.00
2023-07-02T03:35:35.311Z,94640.00
2023-07-02T03:36:36.121Z,94637.00
2023-07-02T03:37:35.451Z,94640.00
2023-07-02T03:38:35.622Z,94640.00
2023-07-02T03:39:35.341Z,94642.00
2023-07-02T03:40:35.691Z,94642.00
2023-07-02T03:41:35.397Z,94638.00
2023-07-02T03:42:35.257Z,94640.00
2023-07-02T03:43:35.269Z,94640.00
2023-07-02T04:03:22.223Z,94652.00
2023-07-02T04:04:22.153Z,94656.00
2023-07-02T04:05:22.304Z,94652.00
2023-07-02T04:06:22.654Z,94650.00
2023-07-02T04:07:22.018Z,94652.00
2023-07-02T04:08:22.053Z,94652.00
2023-07-02T04:09:22.033Z,94652.00
2023-07-02T04:10:21.962Z,94650.00
2023-07-02T04:11:21.949Z,94652.00
2023-07-02T04:12:21.983Z,94652.00
2023-07-02T04:13:21.945Z,94654.00
2023-07-02T04:14:21.906Z,94654.00
2023-07-02T04:15:21.927Z,94656.00
2023-07-02T04:16:22.018Z,94662.00
2023-07-02T04:17:21.937Z,94664.00
2023-07-02T04:18:21.876Z,94664.00
2023-07-02T04:19:21.942Z,94668.00
2023-07-02T04:20:21.896Z,94668.00
2023-07-02T04:21:21.849Z,94672.00
2023-07-02T04:22:21.860Z,94674.00
2023-07-02T04:23:21.956Z,94678.00
2023-07-02T04:24:21.861Z,94678.00
2023-07-02T04:25:29.584Z,94678.00
2023-07-02T04:26:51.224Z,94684.00
2023-07-02T04:27:49.058Z,94684.00
2023-07-02T04:28:22.918Z,94686.00
2023-07-02T04:29:21.820Z,94689.00
2023-07-02T04:30:21.812Z,94686.00
2023-07-02T04:31:21.811Z,94684.00
2023-07-02T04:32:21.832Z,94682.00
2023-07-02T04:33:22.455Z,94686.00
2023-07-02T04:34:21.815Z,94684.00
2023-07-02T04:35:21.828Z,94691.00
2023-07-02T04:36:21.842Z,94689.00
2023-07-02T04:37:21.956Z,94689.00
2023-07-02T04:38:21.943Z,94688.00
2023-07-02T04:39:21.788Z,94689.00
2023-07-02T04:40:21.758Z,94691.00
2023-07-02T04:41:21.735Z,94693.00
2023-07-02T04:42:21.747Z,94695.00
2023-07-02T04:43:21.845Z,94693.00
2023-07-02T04:44:21.690Z,94695.00
2023-07-02T04:45:21.752Z,94699.00
2023-07-02T04:46:21.727Z,94695.00
2023-07-02T04:47:21.712Z,94695.00
2023-07-02T04:48:21.693Z,94695.00
2023-07-02T04:49:21.745Z,94693.00
2023-07-02T04:50:21.646Z,94695.00
2023-07-02T04:51:21.668Z,94699.00
2023-07-02T04:52:21.641Z,94695.00
2023-07-02T04:53:21.686Z,94697.00
2023-07-02T04:54:21.645Z,94697.00
2023-07-02T04:55:21.630Z,94697.00
2023-07-02T04:56:21.663Z,94693.00
2023-07-02T05:19:13.632Z,94713.00
2023-07-02T05:20:14.087Z,94713.00
2023-07-02T06:00:02.653Z,94727.00
2023-07-02T06:03:26.240Z,94727.00
2023-07-02T06:04:25.271Z,94727.00
2023-07-02T06:05:25.422Z,94731.00
2023-07-02T06:06:25.535Z,94731.00
2023-07-02T06:07:25.136Z,94729.00
2023-07-02T06:08:25.051Z,94729.00
2023-07-02T06:09:25.123Z,94727.00
2023-07-02T06:10:25.163Z,94729.00
2023-07-02T06:11:25.082Z,94731.00
2023-07-02T06:12:25.088Z,94727.00
2023-07-02T06:13:25.189Z,94727.00
2023-07-02T06:14:25.681Z,94729.00
2023-07-02T06:15:25.004Z,94729.00
2023-07-02T06:16:25.316Z,94729.00
2023-07-02T06:17:25.035Z,94731.00
2023-07-02T06:18:25.136Z,94733.00
2023-07-02T06:19:25.020Z,94733.00
2023-07-02T06:20:25.017Z,94731.00
2023-07-02T06:21:25.736Z,94729.00
2023-07-02T06:22:26.900Z,94733.00
2023-07-02T06:23:25.157Z,94731.00
2023-07-02T06:24:25.052Z,94725.00
2023-07-02T06:25:25.672Z,94729.00
2023-07-02T06:26:25.178Z,94727.00
2023-07-02T06:27:25.179Z,94731.00
2023-07-02T06:28:25.176Z,94727.00
2023-07-02T06:29:25.223Z,94725.00
2023-07-02T06:30:25.195Z,94729.00
2023-07-02T06:31:25.735Z,94731.00
2023-07-02T06:32:25.244Z,94733.00
2023-07-02T06:33:25.737Z,94733.00
2023-07-02T06:34:25.758Z,94737.00
2023-07-02T06:35:25.252Z,94735.00
2023-07-02T06:36:25.248Z,94735.00
2023-07-02T06:37:25.244Z,94733.00
2023-07-02T06:38:26.268Z,94733.00
2023-07-02T06:39:25.422Z,94737.00
2023-07-02T06:40:25.889Z,94733.00
2023-07-02T06:41:25.423Z,94733.00
2023-07-02T06:42:25.288Z,94735.00
2023-07-02T06:43:25.286Z,94735.00
2023-07-02T06:44:25.300Z,94739.00
2023-07-02T06:45:25.300Z,94737.00
2023-07-02T06:46:25.355Z,94737.00
2023-07-02T06:47:26.474Z,94737.00
2023-07-02T06:48:25.320Z,94739.00
2023-07-02T06:49:25.334Z,94733.00
2023-07-02T06:50:25.443Z,94733.00
2023-07-02T06:51:25.825Z,94735.00
2023-07-02T06:52:25.553Z,94735.00
2023-07-02T06:53:25.635Z,94733.00
2023-07-02T06:54:25.613Z,94739.00
2023-07-02T06:55:25.673Z,94737.00
2023-07-02T06:56:25.780Z,94737.00
2023-07-02T06:57:25.790Z,94737.00
2023-07-02T06:58:25.802Z,94737.00
2023-07-02T06:59:25.808Z,94735.00
2023-07-02T07:00:25.891Z,94737.00
2023-07-02T07:01:25.979Z,94737.00
2023-07-02T07:02:25.982Z,94733.00
2023-07-02T07:03:25.985Z,94737.00
2023-07-02T07:04:26.030Z,94735.00
2023-07-02T07:05:25.959Z,94739.00
2023-07-02T07:06:26.067Z,94739.00
2023-07-02T07:07:25.964Z,94739.00
2023-07-02T07:08:26.083Z,94739.00
2023-07-02T07:09:26.078Z,94739.00
2023-07-02T07:10:26.182Z,94741.00
2023-07-02T07:11:26.204Z,94743.00
2023-07-02T07:12:26.292Z,94744.00
2023-07-02T07:13:26.422Z,94743.00
2023-07-02T07:14:27.267Z,94739.00
2023-07-02T07:15:26.471Z,94737.00
2023-07-02T07:16:26.446Z,94737.00
2023-07-02T07:17:26.512Z,94741.00
2023-07-02T07:18:26.786Z,94737.00
2023-07-02T07:19:26.662Z,94735.00
2023-07-02T07:20:26.676Z,94739.00
2023-07-02T07:21:26.725Z,94737.00
2023-07-02T07:22:26.784Z,94735.00
2023-07-02T07:23:26.811Z,94737.00
2023-07-02T07:24:26.794Z,94735.00
2023-07-02T07:25:26.795Z,94735.00
2023-07-02T07:26:26.811Z,94735.00
2023-07-02T07:27:26.822Z,94735.00
2023-07-02T07:28:26.933Z,94731.00
2023-07-02T07:29:26.939Z,94733.00
2023-07-02T07:30:26.943Z,94733.00
2023-07-02T07:31:27.000Z,94731.00
2023-07-02T07:32:27.040Z,94733.00
2023-07-02T07:33:27.057Z,94733.00
2023-07-02T07:40:09.856Z,94733.00
2023-07-02T07:41:10.125Z,94735.00
2023-07-02T07:42:10.046Z,94733.00
2023-07-02T08:24:11.963Z,94735.00
2023-07-02T08:25:12.675Z,94731.00
2023-07-02T08:26:11.556Z,94735.00
2023-07-02T08:27:11.562Z,94731.00
2023-07-02T08:28:11.624Z,94731.00
2023-07-02T08:29:12.235Z,94737.00
2023-07-02T08:30:11.743Z,94733.00
2023-07-02T08:31:11.540Z,94733.00
2023-07-02T08:32:11.649Z,94733.00
2023-07-02T08:41:38.726Z,94727.00
2023-07-02T08:47:51.079Z,94723.00
2023-07-02T08:51:28.957Z,94719.00
2023-07-02T09:40:51.583Z,94689.00
2023-07-02T09:46:58.738Z,94676.00
2023-07-02T11:08:36.311Z,94629.00
2023-07-02T11:09:36.312Z,94625.00
2023-07-02T11:10:36.295Z,94627.00
2023-07-02T11:11:35.816Z,94629.00
2023-07-02T12:19:46.542Z,94623.00
2023-07-02T12:47:18.065Z,94613.00
2023-07-02T13:19:46.373Z,94613.00
2023-07-02T13:37:31.957Z,94588.00
2023-07-02T14:44:41.470Z,94593.00
2023-07-02T15:17:37.667Z,94597.00
2023-07-02T15:30:25.603Z,94601.00
2023-07-02T16:01:05.808Z,94619.00
2023-07-02T16:16:05.754Z,94625.00
2023-07-02T16:19:57.717Z,94635.00
2023-07-02T16:25:58.995Z,94642.00
2023-07-02T16:31:27.079Z,94640.00
2023-07-02T16:43:13.408Z,94652.00
2023-07-02T17:48:13.153Z,94672.00
2023-07-02T17:51:08.514Z,94666.00
2023-07-02T18:16:26.394Z,94693.00
2023-07-02T18:23:24.929Z,94693.00
2023-07-02T18:24:25.610Z,94688.00
2023-07-02T18:36:26.083Z,94705.00
2023-07-02T18:37:13.411Z,94705.00
2023-07-02T18:39:32.561Z,94707.00
2023-07-02T20:03:41.274Z,94797.00
2023-07-02T20:34:49.128Z,94829.00
2023-07-02T21:22:17.562Z,94856.00
2023-07-02T21:23:17.721Z,94858.00
2023-07-02T21:24:16.986Z,94860.00
